Airfield :
LOGIN :

Register | Disclaimer

   EN    FR    IT 

 










Legend :    VFR   Marginal VFR   IFR   Intensive IFR   Very Intensive IFR
Visi :
Ceiling :
>= 8 km
>= 3000ft
5 to 8 km
1000 to 3000 ft
1500m to 5 km
500 to 1000 ft
800 to 1500m
200 to 500 ft
< 800m
< 200 ft
Symbols :   Thunderstorms  Fog  Heavy snow  Heavy precipitations  Wind > 20 kt
SIGMETs :     Misc.  Thunderstorms  Icing  Turbulence  Mountain Waves  Volcanic Ashes







- Airport Elevation : 218 ft
- IATA code : LBG
- Download approach charts


LFPB - Paris / Le Bourget

CURRENT METAR :
  • 222330Z AUTO 34005KT CAVOK 19/13 Q1017 NOSIG

EXPIRED METARs :
  • 222300Z AUTO 32006KT 280V350 CAVOK 19/14 Q1017 NOSIG
  • 222230Z AUTO 33003KT 280V350 CAVOK 20/14 Q1016 NOSIG
  • 222200Z AUTO 32006KT 270V360 CAVOK 20/14 Q1016 NOSIG
  • 222130Z AUTO 34009KT CAVOK 21/15 Q1016 NOSIG
  • 222100Z AUTO 35006KT 320V030 CAVOK 22/15 Q1015 NOSIG

TAF TAF LFPB
Valid from the 23 at 00:00 until the 24 at 00:00 UTC


222300Z 2300/2324 32005KT CAVOK
PROB40
TEMPO 2303/2306 BKN025
BECMG 2310/2312 27010G20KT
ATIS : +33 1 48 62 43 92
No reported NOTAMs for that airfield.



MET'MAP, your aeronautical weather chart ! - Copyright ORBIFLY December 2007 - Disclaimer

ORBIFLY MET'MAP TEAM :

Programming & Development : Alexandra Zaïnal
Concept & Development : Baudouin d'Aumeries
Co-Development & Prog : Marc-Olivier Méhu
Technical & hardware support : Manuel Goepfert

Contact : metmap@orbifly.com




SOURCES & CREDITS :

   NOAA